Time;durP1;ratioP1;P1;durP2;ratioP2;P2;SDS_P1;SDS_P2;PMS_P1;PMS_P2;Temp;Humidity;BMP_temperature;BMP_pressure;BME280_temperature;BME280_humidity;BME280_pressure;Samples;Min_cycle;Max_cycle;Signal;HPM_P1;HPM_P2
2023/05/16 00:00:18;;;;;;;11.90;11.30;;;;;;;;;;5030757;28;20026;-66
2023/05/16 00:02:43;;;;;;;11.98;11.38;;;;;;;;;;5030487;28;20046;-66
2023/05/16 00:05:13;;;;;;;12.50;11.90;;;;;;;;;;5035127;28;20489;-66
2023/05/16 00:07:38;;;;;;;11.82;11.23;;;;;;;;;;5030387;28;20022;-66
2023/05/16 00:10:04;;;;;;;12.02;11.43;;;;;;;;;;5029621;28;20103;-66
2023/05/16 00:12:29;;;;;;;12.65;12.05;;;;;;;;;;5033979;28;20401;-66
2023/05/16 00:14:55;;;;;;;13.52;12.77;;;;;;;;;;5025546;28;20018;-66
2023/05/16 00:17:22;;;;;;;12.85;12.15;;;;;;;;;;5026401;28;20170;-66
2023/05/16 00:19:48;;;;;;;12.40;11.80;;;;;;;;;;5022842;28;20108;-66
2023/05/16 00:22:14;;;;;;;12.30;11.70;;;;;;;;;;5027250;28;20056;-67
2023/05/16 00:24:40;;;;;;;12.30;11.70;;;;;;;;;;5025600;28;20029;-66
2023/05/16 00:27:05;;;;;;;13.55;12.85;;;;;;;;;;5023183;28;20053;-66
2023/05/16 00:29:31;;;;;;;12.80;12.15;;;;;;;;;;5033559;28;20052;-65
2023/05/16 00:31:56;;;;;;;11.68;11.10;;;;;;;;;;5030526;28;20018;-67
2023/05/16 00:34:21;;;;;;;11.95;11.35;;;;;;;;;;5040432;28;20093;-66
2023/05/16 00:36:48;;;;;;;11.80;11.20;;;;;;;;;;5036404;28;20392;-66
2023/05/16 00:39:13;;;;;;;12.18;11.57;;;;;;;;;;5033033;28;20500;-66
2023/05/16 00:41:39;;;;;;;12.30;11.70;;;;;;;;;;5036521;28;20025;-67
2023/05/16 00:44:05;;;;;;;12.60;12.00;;;;;;;;;;5035068;28;20104;-66
2023/05/16 00:46:31;;;;;;;12.25;11.65;;;;;;;;;;5029900;28;20473;-66
2023/05/16 00:48:56;;;;;;;12.30;11.70;;;;;;;;;;5028767;28;20080;-66
2023/05/16 00:51:21;;;;;;;12.40;11.80;;;;;;;;;;5033545;28;20021;-65
2023/05/16 00:53:47;;;;;;;12.48;11.88;;;;;;;;;;5036487;28;20062;-66
2023/05/16 00:56:12;;;;;;;12.30;11.70;;;;;;;;;;5038567;28;20036;-66
2023/05/16 00:58:37;;;;;;;11.38;10.88;;;;;;;;;;5037054;28;20024;-67
2023/05/16 01:01:03;;;;;;;11.90;11.25;;;;;;;;;;5029880;28;20040;-66
2023/05/16 01:03:29;;;;;;;12.32;11.73;;;;;;;;;;5038501;28;20049;-66
2023/05/16 01:05:55;;;;;;;11.88;11.27;;;;;;;;;;5035458;28;20040;-66
2023/05/16 01:08:20;;;;;;;12.27;11.68;;;;;;;;;;5044040;28;20036;-65
2023/05/16 01:10:55;;;;;;;12.00;11.40;;;;;;;;;;5042189;28;20031;-67
2023/05/16 01:13:29;;;;;;;12.20;11.60;;;;;;;;;;5027094;28;20052;-66
2023/05/16 01:16:07;;;;;;;11.90;11.30;;;;;;;;;;5032920;28;20030;-66
2023/05/16 01:18:33;;;;;;;12.30;11.70;;;;;;;;;;5037749;28;20029;-66
2023/05/16 01:21:02;;;;;;;11.75;11.18;;;;;;;;;;5033488;28;20025;-66
2023/05/16 01:23:40;;;;;;;12.40;11.80;;;;;;;;;;5034268;28;20455;-66
2023/05/16 01:26:09;;;;;;;11.50;11.00;;;;;;;;;;5032996;28;20056;-67
2023/05/16 01:28:35;;;;;;;11.90;11.30;;;;;;;;;;5026289;28;20465;-67
2023/05/16 01:31:00;;;;;;;11.68;11.18;;;;;;;;;;5032846;28;20108;-67
2023/05/16 01:33:26;;;;;;;11.88;11.27;;;;;;;;;;5032946;28;20113;-67
2023/05/16 01:36:13;;;;;;;12.20;11.60;;;;;;;;;;5026182;28;20026;-67
2023/05/16 01:38:40;;;;;;;12.02;11.43;;;;;;;;;;5034568;28;20022;-67
2023/05/16 01:41:20;;;;;;;11.65;11.13;;;;;;;;;;5030103;28;20026;-66
2023/05/16 01:43:47;;;;;;;11.75;11.18;;;;;;;;;;5030614;28;20083;-66
2023/05/16 01:46:20;;;;;;;11.52;11.02;;;;;;;;;;5028326;28;20572;-65
2023/05/16 01:48:54;;;;;;;11.98;11.38;;;;;;;;;;5040960;28;20029;-66
2023/05/16 01:51:26;;;;;;;13.20;12.50;;;;;;;;;;5030848;28;20026;-66
2023/05/16 01:53:52;;;;;;;12.57;11.98;;;;;;;;;;5029404;28;20380;-66
2023/05/16 01:56:18;;;;;;;11.45;10.95;;;;;;;;;;5027080;28;20501;-66
2023/05/16 01:58:45;;;;;;;12.80;12.15;;;;;;;;;;5031957;28;20045;-66
2023/05/16 02:01:12;;;;;;;11.75;11.15;;;;;;;;;;5026078;28;20487;-65
2023/05/16 02:03:37;;;;;;;11.93;11.32;;;;;;;;;;5034722;28;20429;-66
2023/05/16 02:06:03;;;;;;;11.90;11.30;;;;;;;;;;5031581;28;20072;-66
2023/05/16 02:08:29;;;;;;;11.70;11.10;;;;;;;;;;5031542;28;20025;-66
2023/05/16 02:10:54;;;;;;;11.98;11.38;;;;;;;;;;5030879;28;20020;-66
2023/05/16 02:13:20;;;;;;;11.90;11.30;;;;;;;;;;5031722;28;20097;-67
2023/05/16 02:15:45;;;;;;;12.95;12.27;;;;;;;;;;5035689;28;20013;-67
2023/05/16 02:18:11;;;;;;;12.30;11.70;;;;;;;;;;5039584;28;20021;-66
2023/05/16 02:20:36;;;;;;;12.65;12.05;;;;;;;;;;5027267;28;20045;-67
2023/05/16 02:23:02;;;;;;;12.15;11.55;;;;;;;;;;5032668;28;20033;-66
2023/05/16 02:25:27;;;;;;;12.85;12.15;;;;;;;;;;5031207;28;20481;-67
2023/05/16 02:27:52;;;;;;;11.90;11.30;;;;;;;;;;5029192;28;20029;-66
2023/05/16 02:30:18;;;;;;;11.68;11.13;;;;;;;;;;5032872;28;20025;-66
2023/05/16 02:32:43;;;;;;;12.45;11.85;;;;;;;;;;5033773;28;20021;-67
2023/05/16 02:35:09;;;;;;;11.43;10.93;;;;;;;;;;5031791;28;20021;-65
2023/05/16 02:37:35;;;;;;;12.23;11.63;;;;;;;;;;5031806;28;20017;-66
2023/05/16 02:40:00;;;;;;;12.38;11.77;;;;;;;;;;5036459;28;20025;-66
2023/05/16 02:42:27;;;;;;;12.27;11.68;;;;;;;;;;5029033;28;20538;-66
2023/05/16 02:44:53;;;;;;;12.00;11.40;;;;;;;;;;5035230;28;20040;-67
2023/05/16 02:47:19;;;;;;;12.02;11.43;;;;;;;;;;5032771;28;20029;-67
2023/05/16 02:49:44;;;;;;;12.00;11.40;;;;;;;;;;5029399;28;20025;-67
2023/05/16 02:52:10;;;;;;;12.00;11.40;;;;;;;;;;5030108;28;20542;-66
2023/05/16 02:54:36;;;;;;;12.27;11.68;;;;;;;;;;5031906;28;20068;-67
2023/05/16 02:57:01;;;;;;;11.70;11.18;;;;;;;;;;5033876;28;20079;-67
2023/05/16 02:59:26;;;;;;;11.88;11.27;;;;;;;;;;5032383;28;20029;-67
2023/05/16 03:01:52;;;;;;;11.50;11.00;;;;;;;;;;5031572;28;20390;-67
2023/05/16 03:04:17;;;;;;;11.80;11.20;;;;;;;;;;5033977;28;20509;-67
2023/05/16 03:06:42;;;;;;;12.30;11.70;;;;;;;;;;5022609;28;20079;-66
2023/05/16 03:09:08;;;;;;;11.73;11.13;;;;;;;;;;5034898;28;20029;-66
2023/05/16 03:11:33;;;;;;;12.35;11.75;;;;;;;;;;5037025;28;20397;-66
2023/05/16 03:13:59;;;;;;;12.25;11.65;;;;;;;;;;5038722;28;20025;-66
2023/05/16 03:16:24;;;;;;;12.00;11.40;;;;;;;;;;5031951;28;20100;-66
2023/05/16 03:18:50;;;;;;;12.27;11.68;;;;;;;;;;5035000;28;20022;-66
2023/05/16 03:21:15;;;;;;;11.98;11.38;;;;;;;;;;5034906;28;20033;-66
2023/05/16 03:23:40;;;;;;;11.95;11.35;;;;;;;;;;5032096;28;20384;-66
2023/05/16 03:26:06;;;;;;;12.10;11.50;;;;;;;;;;5033323;28;20353;-66
2023/05/16 03:28:31;;;;;;;12.30;11.70;;;;;;;;;;5030597;28;20512;-67
2023/05/16 03:30:57;;;;;;;11.52;11.02;;;;;;;;;;5031103;28;20034;-67
2023/05/16 03:33:23;;;;;;;12.70;12.00;;;;;;;;;;5026390;28;20022;-63
2023/05/16 03:35:48;;;;;;;12.48;11.85;;;;;;;;;;5026796;28;20036;-61
2023/05/16 03:38:14;;;;;;;12.27;11.68;;;;;;;;;;5022870;28;20028;-61
2023/05/16 03:40:40;;;;;;;12.63;12.02;;;;;;;;;;5028330;28;20048;-61
2023/05/16 03:43:05;;;;;;;11.93;11.32;;;;;;;;;;5032931;28;20504;-61
2023/05/16 03:45:31;;;;;;;12.93;12.23;;;;;;;;;;5024044;28;20025;-62
2023/05/16 03:47:56;;;;;;;11.93;11.32;;;;;;;;;;5022639;28;20032;-62
2023/05/16 03:50:22;;;;;;;12.00;11.40;;;;;;;;;;5031354;28;20025;-61
2023/05/16 03:52:47;;;;;;;11.40;10.90;;;;;;;;;;5030210;28;20488;-62
2023/05/16 03:55:13;;;;;;;12.02;11.43;;;;;;;;;;5031423;28;20028;-62
2023/05/16 03:57:41;;;;;;;11.80;11.23;;;;;;;;;;5027171;28;20029;-62
2023/05/16 04:00:07;;;;;;;12.55;11.95;;;;;;;;;;5025403;28;20093;-63
2023/05/16 04:02:32;;;;;;;12.77;12.15;;;;;;;;;;5027342;28;20123;-62
2023/05/16 04:04:57;;;;;;;11.90;11.30;;;;;;;;;;5023120;28;20482;-62
2023/05/16 04:07:23;;;;;;;12.75;12.13;;;;;;;;;;5026798;28;20041;-60
2023/05/16 04:09:48;;;;;;;12.02;11.43;;;;;;;;;;5026974;28;20056;-62
2023/05/16 04:12:13;;;;;;;12.48;11.88;;;;;;;;;;5020552;28;20036;-62
2023/05/16 04:14:38;;;;;;;12.30;11.70;;;;;;;;;;5029307;28;20365;-62
2023/05/16 04:17:04;;;;;;;12.82;12.13;;;;;;;;;;5025596;28;20048;-60
2023/05/16 04:19:30;;;;;;;12.93;12.23;;;;;;;;;;5023522;28;20076;-62
2023/05/16 04:21:55;;;;;;;12.15;11.55;;;;;;;;;;5030792;28;20392;-61
2023/05/16 04:24:25;;;;;;;11.90;11.30;;;;;;;;;;5027898;28;20029;-63
2023/05/16 04:26:50;;;;;;;12.18;11.57;;;;;;;;;;5029713;28;20056;-61
2023/05/16 04:29:16;;;;;;;11.85;11.25;;;;;;;;;;5025930;28;20034;-62
2023/05/16 04:31:41;;;;;;;13.38;12.68;;;;;;;;;;5024876;28;20038;-60
2023/05/16 04:34:06;;;;;;;12.30;11.70;;;;;;;;;;5026741;28;20021;-61
2023/05/16 04:36:34;;;;;;;13.40;12.70;;;;;;;;;;5031536;28;20047;-63
2023/05/16 04:38:59;;;;;;;12.15;11.55;;;;;;;;;;5029905;28;20684;-61
2023/05/16 04:41:24;;;;;;;11.95;11.35;;;;;;;;;;5030189;28;20725;-62
2023/05/16 04:43:50;;;;;;;12.40;11.80;;;;;;;;;;5029460;28;20056;-64
2023/05/16 04:46:16;;;;;;;11.93;11.32;;;;;;;;;;5032299;28;20036;-61
2023/05/16 04:48:41;;;;;;;12.57;11.95;;;;;;;;;;5032004;28;20028;-62
2023/05/16 04:51:06;;;;;;;12.25;11.65;;;;;;;;;;5031368;28;20500;-63
2023/05/16 04:53:32;;;;;;;12.07;11.48;;;;;;;;;;5031044;28;20089;-62
2023/05/16 04:55:57;;;;;;;12.65;12.05;;;;;;;;;;5030108;28;20051;-62
2023/05/16 04:58:23;;;;;;;12.35;11.75;;;;;;;;;;5026003;28;20021;-62
2023/05/16 05:00:51;;;;;;;12.20;11.60;;;;;;;;;;5027570;28;20017;-62
2023/05/16 05:03:16;;;;;;;12.50;11.90;;;;;;;;;;5029641;28;20049;-62
2023/05/16 05:05:42;;;;;;;13.75;13.05;;;;;;;;;;5026148;28;20021;-61
2023/05/16 05:08:08;;;;;;;12.38;11.77;;;;;;;;;;5029692;28;20504;-61
2023/05/16 05:10:35;;;;;;;12.30;11.70;;;;;;;;;;5026051;28;20876;-63
2023/05/16 05:13:00;;;;;;;11.60;11.05;;;;;;;;;;5027745;28;20025;-62
2023/05/16 05:15:25;;;;;;;12.25;11.65;;;;;;;;;;5027579;28;20028;-62
2023/05/16 05:17:50;;;;;;;13.13;12.43;;;;;;;;;;5054169;28;20022;-62
2023/05/16 05:20:16;;;;;;;12.60;12.00;;;;;;;;;;5034674;28;20025;-63
2023/05/16 05:22:41;;;;;;;12.13;11.52;;;;;;;;;;5025455;28;20033;-61
2023/05/16 05:25:07;;;;;;;12.30;11.70;;;;;;;;;;5034926;28;20508;-61
2023/05/16 05:27:32;;;;;;;12.23;11.63;;;;;;;;;;5023400;28;20033;-63
2023/05/16 05:29:57;;;;;;;13.48;12.77;;;;;;;;;;5027308;28;20017;-64
2023/05/16 05:32:23;;;;;;;13.23;12.52;;;;;;;;;;5029642;28;20105;-63
2023/05/16 05:34:48;;;;;;;13.30;12.60;;;;;;;;;;5029795;28;20065;-66
2023/05/16 05:37:13;;;;;;;12.77;12.15;;;;;;;;;;5021568;28;20556;-63
2023/05/16 05:39:39;;;;;;;12.88;12.20;;;;;;;;;;5018332;28;20041;-63
2023/05/16 05:42:04;;;;;;;13.38;12.68;;;;;;;;;;5022030;28;20049;-65
2023/05/16 05:44:29;;;;;;;12.75;12.15;;;;;;;;;;5019766;28;20033;-62
2023/05/16 05:46:56;;;;;;;12.90;12.27;;;;;;;;;;5020020;28;20543;-63
2023/05/16 05:49:22;;;;;;;15.50;14.60;;;;;;;;;;5014816;28;20036;-65
2023/05/16 05:51:50;;;;;;;14.52;13.73;;;;;;;;;;5025398;28;20013;-65
2023/05/16 05:54:16;;;;;;;13.38;12.68;;;;;;;;;;5024019;28;20507;-65
2023/05/16 05:56:41;;;;;;;13.85;13.15;;;;;;;;;;5027270;28;20021;-64
2023/05/16 05:59:06;;;;;;;13.27;12.57;;;;;;;;;;5028458;28;20025;-64
2023/05/16 06:01:31;;;;;;;13.93;13.23;;;;;;;;;;5023623;28;20076;-64
2023/05/16 06:03:57;;;;;;;12.90;12.30;;;;;;;;;;5032997;28;20037;-64
2023/05/16 06:06:22;;;;;;;13.40;12.70;;;;;;;;;;5030415;28;20029;-67
2023/05/16 06:08:48;;;;;;;13.55;12.85;;;;;;;;;;5030465;28;20032;-66
2023/05/16 06:11:13;;;;;;;13.45;12.75;;;;;;;;;;5030198;28;20040;-67
2023/05/16 06:13:38;;;;;;;13.27;12.65;;;;;;;;;;5034089;28;20032;-65
2023/05/16 06:16:04;;;;;;;13.45;12.82;;;;;;;;;;5031653;28;20519;-65
2023/05/16 06:18:29;;;;;;;13.80;13.10;;;;;;;;;;5030065;28;20028;-66
2023/05/16 06:20:55;;;;;;;13.77;13.18;;;;;;;;;;5031956;28;20033;-66
2023/05/16 06:23:20;;;;;;;13.00;12.40;;;;;;;;;;5034905;28;20070;-66
2023/05/16 06:25:46;;;;;;;13.30;12.70;;;;;;;;;;5031425;28;20733;-65
2023/05/16 06:28:11;;;;;;;12.90;12.30;;;;;;;;;;5030766;28;20101;-64
2023/05/16 06:30:36;;;;;;;13.27;12.68;;;;;;;;;;5029772;28;20052;-66
2023/05/16 06:33:02;;;;;;;12.43;11.88;;;;;;;;;;5025658;28;20120;-69
2023/05/16 06:35:28;;;;;;;12.93;12.33;;;;;;;;;;5028277;28;20149;-69
2023/05/16 06:37:53;;;;;;;12.68;12.07;;;;;;;;;;5033044;28;20262;-68
2023/05/16 06:40:18;;;;;;;12.82;12.23;;;;;;;;;;5025400;28;20025;-68
2023/05/16 06:42:44;;;;;;;12.65;12.05;;;;;;;;;;5027957;28;20037;-69
2023/05/16 06:45:09;;;;;;;13.07;12.47;;;;;;;;;;5025971;28;20027;-69
2023/05/16 06:47:35;;;;;;;13.27;12.68;;;;;;;;;;5028126;28;20271;-68
2023/05/16 06:50:00;;;;;;;12.70;12.10;;;;;;;;;;5021521;28;20362;-65
2023/05/16 06:52:26;;;;;;;12.70;12.10;;;;;;;;;;5024574;28;20026;-65
2023/05/16 06:54:51;;;;;;;12.88;12.27;;;;;;;;;;5024154;28;20083;-64
2023/05/16 06:57:16;;;;;;;12.80;12.20;;;;;;;;;;5026224;28;20044;-66
2023/05/16 06:59:42;;;;;;;13.02;12.43;;;;;;;;;;5023446;28;20038;-65
2023/05/16 07:02:07;;;;;;;13.25;12.65;;;;;;;;;;5026782;28;20053;-67
2023/05/16 07:04:35;;;;;;;13.47;12.83;;;;;;;;;;5028866;28;20463;-65
2023/05/16 07:07:00;;;;;;;13.82;13.13;;;;;;;;;;5024567;28;20278;-63
2023/05/16 07:09:26;;;;;;;13.25;12.63;;;;;;;;;;5026525;28;20401;-64
2023/05/16 07:11:51;;;;;;;14.15;13.45;;;;;;;;;;5033419;28;20079;-64
2023/05/16 07:14:16;;;;;;;13.95;13.25;;;;;;;;;;5029180;28;20423;-64
2023/05/16 07:16:42;;;;;;;13.88;13.18;;;;;;;;;;5028259;28;20029;-64
2023/05/16 07:19:07;;;;;;;14.10;13.40;;;;;;;;;;5024548;28;20025;-64
2023/05/16 07:21:32;;;;;;;14.02;13.32;;;;;;;;;;5026596;28;20076;-68
2023/05/16 07:23:58;;;;;;;13.40;12.75;;;;;;;;;;5027649;28;20467;-66
2023/05/16 07:26:25;;;;;;;13.70;13.00;;;;;;;;;;5028213;28;20037;-65
2023/05/16 07:28:50;;;;;;;13.60;12.90;;;;;;;;;;5025674;28;20029;-65
2023/05/16 07:31:16;;;;;;;13.05;12.45;;;;;;;;;;5024240;28;20396;-65
2023/05/16 07:33:43;;;;;;;13.13;12.52;;;;;;;;;;5034955;28;20028;-65
2023/05/16 07:36:09;;;;;;;14.10;13.40;;;;;;;;;;5024420;28;20021;-66
2023/05/16 07:38:35;;;;;;;13.02;12.43;;;;;;;;;;5023577;28;20029;-69
2023/05/16 07:41:00;;;;;;;13.20;12.60;;;;;;;;;;5025832;28;20044;-66
2023/05/16 07:43:25;;;;;;;12.98;12.38;;;;;;;;;;5027866;28;20029;-65
2023/05/16 07:45:51;;;;;;;13.05;12.45;;;;;;;;;;5026555;28;20407;-65
2023/05/16 07:48:16;;;;;;;13.68;13.07;;;;;;;;;;5025149;28;20115;-65
2023/05/16 07:50:42;;;;;;;13.43;12.82;;;;;;;;;;5029377;28;20108;-65
2023/05/16 07:53:07;;;;;;;13.40;12.80;;;;;;;;;;5025799;28;20077;-68
2023/05/16 07:55:32;;;;;;;13.10;12.50;;;;;;;;;;5029151;28;20064;-69
2023/05/16 07:57:58;;;;;;;12.75;12.15;;;;;;;;;;5027470;28;20071;-67
2023/05/16 08:00:23;;;;;;;12.65;12.05;;;;;;;;;;5023101;28;20030;-68
2023/05/16 08:02:48;;;;;;;13.13;12.52;;;;;;;;;;5024142;28;20091;-68
2023/05/16 08:05:14;;;;;;;13.15;12.55;;;;;;;;;;5025337;28;20024;-66
2023/05/16 08:07:39;;;;;;;13.77;13.07;;;;;;;;;;5024517;28;20060;-65
2023/05/16 08:10:05;;;;;;;13.23;12.63;;;;;;;;;;5034343;28;20108;-66
2023/05/16 08:12:30;;;;;;;13.18;12.57;;;;;;;;;;5030307;28;20101;-65
2023/05/16 08:14:56;;;;;;;12.43;11.82;;;;;;;;;;5026223;28;20025;-67
2023/05/16 08:17:21;;;;;;;13.40;12.80;;;;;;;;;;5026804;28;20534;-66
2023/05/16 08:19:46;;;;;;;13.75;13.05;;;;;;;;;;5027902;28;20476;-65
2023/05/16 08:22:12;;;;;;;12.82;12.23;;;;;;;;;;5030790;28;20052;-65
2023/05/16 08:24:37;;;;;;;13.30;12.70;;;;;;;;;;5033724;28;20033;-65
2023/05/16 08:27:02;;;;;;;13.07;12.48;;;;;;;;;;5023299;28;20848;-67
2023/05/16 08:29:28;;;;;;;13.10;12.50;;;;;;;;;;5025853;28;20481;-67
2023/05/16 08:31:53;;;;;;;13.05;12.45;;;;;;;;;;5026983;28;20026;-66
2023/05/16 08:34:18;;;;;;;13.13;12.52;;;;;;;;;;5019386;28;20469;-63
2023/05/16 08:36:44;;;;;;;13.23;12.63;;;;;;;;;;5021891;28;20034;-64
2023/05/16 08:39:12;;;;;;;13.70;13.00;;;;;;;;;;5025150;28;20041;-64
2023/05/16 08:41:38;;;;;;;13.85;13.15;;;;;;;;;;5027599;28;20420;-64
2023/05/16 08:44:05;;;;;;;13.82;13.13;;;;;;;;;;5031748;28;20139;-64
2023/05/16 08:46:32;;;;;;;13.80;13.13;;;;;;;;;;5025989;28;20481;-64
2023/05/16 08:48:58;;;;;;;12.85;12.25;;;;;;;;;;5031708;28;20394;-64
2023/05/16 08:51:24;;;;;;;13.23;12.63;;;;;;;;;;5027334;28;20036;-65
2023/05/16 08:53:53;;;;;;;12.40;11.80;;;;;;;;;;5038016;28;20370;-62
2023/05/16 08:56:21;;;;;;;12.25;11.68;;;;;;;;;;5030025;28;20020;-64
2023/05/16 08:58:46;;;;;;;12.45;11.85;;;;;;;;;;5034261;28;20047;-63
2023/05/16 09:01:11;;;;;;;12.60;12.00;;;;;;;;;;5027693;28;20018;-63
2023/05/16 09:03:37;;;;;;;12.85;12.25;;;;;;;;;;5021879;28;20421;-63
2023/05/16 09:06:06;;;;;;;12.90;12.30;;;;;;;;;;5026115;28;20102;-62
2023/05/16 09:08:31;;;;;;;12.65;12.05;;;;;;;;;;5026747;28;20071;-63
2023/05/16 09:10:57;;;;;;;12.60;12.00;;;;;;;;;;5023676;28;20041;-62
2023/05/16 09:13:23;;;;;;;13.10;12.50;;;;;;;;;;5021730;28;20197;-63
2023/05/16 09:16:06;;;;;;;12.95;12.35;;;;;;;;;;5029569;28;20041;-63
2023/05/16 09:18:32;;;;;;;13.60;12.90;;;;;;;;;;5032122;28;20048;-62
2023/05/16 09:20:58;;;;;;;13.13;12.52;;;;;;;;;;5033189;28;20326;-62
2023/05/16 09:23:24;;;;;;;12.85;12.25;;;;;;;;;;5030514;28;20539;-61
2023/05/16 09:25:51;;;;;;;13.50;12.82;;;;;;;;;;5029561;28;20021;-62
2023/05/16 09:28:17;;;;;;;13.25;12.65;;;;;;;;;;5034050;28;20732;-62
2023/05/16 09:30:44;;;;;;;12.52;11.93;;;;;;;;;;5031285;28;20022;-61
2023/05/16 09:33:10;;;;;;;12.60;12.00;;;;;;;;;;5028944;28;20037;-61
2023/05/16 09:35:36;;;;;;;12.20;11.60;;;;;;;;;;5035212;28;20021;-62
2023/05/16 09:38:01;;;;;;;12.35;11.75;;;;;;;;;;5028369;28;20457;-63
2023/05/16 09:40:26;;;;;;;12.98;12.38;;;;;;;;;;5031921;28;20083;-62
2023/05/16 09:43:00;;;;;;;12.60;12.00;;;;;;;;;;5030735;28;20487;-61
2023/05/16 09:45:26;;;;;;;13.23;12.63;;;;;;;;;;5032719;28;20022;-61
2023/05/16 09:47:51;;;;;;;13.10;12.50;;;;;;;;;;5026775;28;20033;-64
2023/05/16 09:50:17;;;;;;;13.50;12.80;;;;;;;;;;5025969;28;20448;-68
2023/05/16 09:52:42;;;;;;;13.65;12.95;;;;;;;;;;5028923;28;20104;-71
2023/05/16 09:55:08;;;;;;;14.90;14.13;;;;;;;;;;5025189;28;20017;-69
2023/05/16 09:57:38;;;;;;;13.65;12.95;;;;;;;;;;5023481;28;20103;-65
2023/05/16 10:00:07;;;;;;;13.02;12.43;;;;;;;;;;5026839;28;20167;-67
2023/05/16 10:02:32;;;;;;;13.88;13.18;;;;;;;;;;5027105;28;20140;-65
2023/05/16 10:04:58;;;;;;;13.95;13.25;;;;;;;;;;5026392;28;20203;-65
2023/05/16 10:07:23;;;;;;;13.95;13.25;;;;;;;;;;5030217;28;20048;-63
2023/05/16 10:09:50;;;;;;;13.60;12.90;;;;;;;;;;5029351;28;20463;-63
2023/05/16 10:12:15;;;;;;;13.77;13.07;;;;;;;;;;5023198;28;20017;-64
2023/05/16 10:14:41;;;;;;;13.77;13.07;;;;;;;;;;5028117;28;20045;-63
2023/05/16 10:17:07;;;;;;;13.02;12.43;;;;;;;;;;5028361;28;20449;-65
2023/05/16 10:19:35;;;;;;;13.10;12.50;;;;;;;;;;5027449;28;20103;-65
2023/05/16 10:22:03;;;;;;;12.73;12.13;;;;;;;;;;5027501;28;20026;-65
2023/05/16 10:24:31;;;;;;;13.55;12.90;;;;;;;;;;5030533;28;20029;-65
2023/05/16 10:26:57;;;;;;;13.82;13.13;;;;;;;;;;5028833;28;20124;-64
2023/05/16 10:29:23;;;;;;;13.60;12.90;;;;;;;;;;5027292;28;20103;-64
2023/05/16 10:31:49;;;;;;;13.32;12.65;;;;;;;;;;5031663;28;20045;-65
2023/05/16 10:34:14;;;;;;;13.45;12.75;;;;;;;;;;5029507;28;20044;-66
2023/05/16 10:36:40;;;;;;;13.85;13.15;;;;;;;;;;5029491;28;20490;-64
2023/05/16 10:39:05;;;;;;;13.77;13.07;;;;;;;;;;5027466;28;20428;-64
2023/05/16 10:41:32;;;;;;;13.98;13.27;;;;;;;;;;5027528;28;20048;-65
2023/05/16 10:43:58;;;;;;;14.55;13.82;;;;;;;;;;5031661;28;20396;-65
2023/05/16 10:46:25;;;;;;;14.25;13.55;;;;;;;;;;5030334;28;20036;-65
2023/05/16 10:48:50;;;;;;;13.95;13.25;;;;;;;;;;5023481;28;20408;-67
2023/05/16 10:51:22;;;;;;;13.68;12.98;;;;;;;;;;5034366;28;20030;-66
2023/05/16 10:53:49;;;;;;;14.02;13.32;;;;;;;;;;5027825;28;20057;-67
2023/05/16 10:56:21;;;;;;;14.07;13.38;;;;;;;;;;5027108;28;20063;-66
2023/05/16 10:58:46;;;;;;;13.77;13.07;;;;;;;;;;5025238;28;20578;-64
2023/05/16 11:01:14;;;;;;;12.73;12.13;;;;;;;;;;5026812;28;20113;-63
2023/05/16 11:03:59;;;;;;;13.88;13.18;;;;;;;;;;5024803;28;20073;-64
2023/05/16 11:06:27;;;;;;;12.75;12.15;;;;;;;;;;5030210;28;20029;-64
2023/05/16 11:09:09;;;;;;;13.18;12.55;;;;;;;;;;5032760;28;20025;-63
2023/05/16 11:11:45;;;;;;;13.77;13.07;;;;;;;;;;5025294;28;20017;-62
2023/05/16 11:14:16;;;;;;;13.07;12.48;;;;;;;;;;5028897;28;20009;-62
2023/05/16 11:16:47;;;;;;;12.77;12.18;;;;;;;;;;5021878;28;20031;-63
2023/05/16 11:19:12;;;;;;;12.45;11.85;;;;;;;;;;5025733;28;20539;-63
2023/05/16 11:21:56;;;;;;;13.23;12.63;;;;;;;;;;5027940;28;20036;-64
2023/05/16 11:24:28;;;;;;;12.40;11.80;;;;;;;;;;5029157;28;20635;-64
2023/05/16 11:26:54;;;;;;;13.07;12.48;;;;;;;;;;5028851;28;20033;-63
2023/05/16 11:29:19;;;;;;;13.10;12.50;;;;;;;;;;5024873;28;20575;-64
2023/05/16 11:31:45;;;;;;;12.80;12.20;;;;;;;;;;5029736;28;20024;-69
2023/05/16 11:34:11;;;;;;;12.80;12.20;;;;;;;;;;5033836;28;20113;-69
2023/05/16 11:36:37;;;;;;;12.90;12.30;;;;;;;;;;5034496;28;20099;-69
2023/05/16 11:39:09;;;;;;;13.70;13.00;;;;;;;;;;5023721;28;20888;-69
2023/05/16 11:41:34;;;;;;;13.90;13.20;;;;;;;;;;5028520;28;20041;-67
2023/05/16 11:44:00;;;;;;;13.82;13.13;;;;;;;;;;5028947;28;20024;-65
2023/05/16 11:46:26;;;;;;;14.13;13.43;;;;;;;;;;5025094;28;20024;-66
2023/05/16 11:48:51;;;;;;;13.07;12.48;;;;;;;;;;5030123;28;20067;-65
2023/05/16 11:51:18;;;;;;;12.80;12.20;;;;;;;;;;5027416;28;20041;-65
2023/05/16 11:53:43;;;;;;;14.27;13.57;;;;;;;;;;5025037;28;20036;-65
2023/05/16 11:56:10;;;;;;;12.57;11.98;;;;;;;;;;5034588;28;20021;-65
2023/05/16 11:58:37;;;;;;;13.70;13.00;;;;;;;;;;5028847;28;20039;-66
2023/05/16 12:01:03;;;;;;;13.57;12.88;;;;;;;;;;5024543;28;20080;-67
2023/05/16 12:03:32;;;;;;;13.65;12.95;;;;;;;;;;5027015;28;20439;-64
2023/05/16 12:05:57;;;;;;;14.00;13.30;;;;;;;;;;5029330;28;20021;-64
2023/05/16 12:08:26;;;;;;;13.88;13.18;;;;;;;;;;5025138;28;20120;-66
2023/05/16 12:10:52;;;;;;;14.15;13.45;;;;;;;;;;5027453;28;20026;-66
2023/05/16 12:13:22;;;;;;;13.20;12.60;;;;;;;;;;5026126;28;20028;-67
2023/05/16 12:15:47;;;;;;;13.80;13.10;;;;;;;;;;5021818;28;20062;-64
2023/05/16 12:18:13;;;;;;;13.50;12.80;;;;;;;;;;5026978;28;20022;-64
2023/05/16 12:20:39;;;;;;;13.57;12.88;;;;;;;;;;5028686;28;20034;-63
2023/05/16 12:23:04;;;;;;;14.02;13.32;;;;;;;;;;5024382;28;20025;-65
2023/05/16 12:25:30;;;;;;;15.27;14.48;;;;;;;;;;5029158;28;20029;-66
2023/05/16 12:27:57;;;;;;;14.77;14.00;;;;;;;;;;5027225;28;20029;-72
2023/05/16 12:30:23;;;;;;;12.52;11.93;;;;;;;;;;5027751;28;20025;-62
2023/05/16 12:32:56;;;;;;;13.75;13.05;;;;;;;;;;5025872;28;20025;-63
2023/05/16 12:35:21;;;;;;;13.73;13.02;;;;;;;;;;5024142;28;20086;-61
2023/05/16 12:37:48;;;;;;;13.65;12.95;;;;;;;;;;5026566;28;20017;-61
2023/05/16 12:40:13;;;;;;;13.98;13.27;;;;;;;;;;5028046;28;20068;-71
2023/05/16 12:42:39;;;;;;;13.50;12.80;;;;;;;;;;5026589;28;20053;-67
2023/05/16 12:45:04;;;;;;;13.65;12.95;;;;;;;;;;5034231;28;20048;-66
2023/05/16 12:47:37;;;;;;;13.77;13.07;;;;;;;;;;5026686;28;20076;-66
2023/05/16 12:50:07;;;;;;;13.43;12.73;;;;;;;;;;5024410;28;20108;-66
2023/05/16 12:52:33;;;;;;;13.63;12.93;;;;;;;;;;5026972;28;20481;-63
2023/05/16 12:54:58;;;;;;;13.43;12.75;;;;;;;;;;5018386;28;20041;-71
2023/05/16 12:57:25;;;;;;;13.93;13.23;;;;;;;;;;5018641;28;20025;-66
2023/05/16 12:59:50;;;;;;;14.10;13.40;;;;;;;;;;5026380;28;20478;-67
2023/05/16 13:02:17;;;;;;;13.47;12.77;;;;;;;;;;5020564;28;20049;-66
2023/05/16 13:04:43;;;;;;;13.15;12.55;;;;;;;;;;5025999;28;20275;-69
2023/05/16 13:07:08;;;;;;;13.63;12.93;;;;;;;;;;5022621;28;20018;-65
2023/05/16 13:09:33;;;;;;;13.85;13.15;;;;;;;;;;5022678;28;20401;-66
2023/05/16 13:11:59;;;;;;;13.18;12.55;;;;;;;;;;5027277;28;20426;-68
2023/05/16 13:14:25;;;;;;;13.13;12.52;;;;;;;;;;5025643;28;20021;-66
2023/05/16 13:16:50;;;;;;;13.20;12.60;;;;;;;;;;5025088;28;20144;-67
2023/05/16 13:19:15;;;;;;;13.70;13.00;;;;;;;;;;5018709;28;20099;-67
2023/05/16 13:21:40;;;;;;;14.75;13.95;;;;;;;;;;5025771;28;20056;-68
2023/05/16 13:24:06;;;;;;;13.35;12.65;;;;;;;;;;5024147;28;20088;-64
2023/05/16 13:26:31;;;;;;;13.32;12.65;;;;;;;;;;5019394;28;20501;-68
2023/05/16 13:28:56;;;;;;;12.90;12.30;;;;;;;;;;5027215;28;20405;-66
2023/05/16 13:31:23;;;;;;;13.45;12.75;;;;;;;;;;5031993;28;20788;-67
2023/05/16 13:33:48;;;;;;;13.55;12.85;;;;;;;;;;5022704;28;20030;-67
2023/05/16 13:36:14;;;;;;;12.85;12.25;;;;;;;;;;5019944;28;20026;-67
2023/05/16 13:38:40;;;;;;;13.38;12.68;;;;;;;;;;5026465;28;20049;-68
2023/05/16 13:41:05;;;;;;;12.95;12.35;;;;;;;;;;5024211;28;20049;-67
2023/05/16 13:43:30;;;;;;;13.52;12.82;;;;;;;;;;5029355;28;20029;-66
2023/05/16 13:45:57;;;;;;;13.88;13.18;;;;;;;;;;5022954;28;20101;-65
2023/05/16 13:48:22;;;;;;;13.55;12.85;;;;;;;;;;5027659;28;20421;-67
2023/05/16 13:50:47;;;;;;;13.45;12.75;;;;;;;;;;5024601;28;20025;-66
2023/05/16 13:53:12;;;;;;;13.68;12.98;;;;;;;;;;5027579;28;20018;-67
2023/05/16 13:55:38;;;;;;;13.82;13.13;;;;;;;;;;5028943;28;20439;-63
2023/05/16 13:58:03;;;;;;;13.45;12.75;;;;;;;;;;5030799;28;20028;-63
2023/05/16 14:00:28;;;;;;;13.52;12.82;;;;;;;;;;5032052;28;20033;-66
2023/05/16 14:02:54;;;;;;;12.75;12.15;;;;;;;;;;5031802;28;20464;-64
2023/05/16 14:05:19;;;;;;;13.30;12.60;;;;;;;;;;5024640;28;20124;-67
2023/05/16 14:07:45;;;;;;;14.02;13.32;;;;;;;;;;5025859;28;20026;-65
2023/05/16 14:10:10;;;;;;;12.48;11.88;;;;;;;;;;5030023;28;20075;-66